createdAt,value
2023-02-27T00:03:16.715Z,9.7
2023-02-27T00:08:54.001Z,10.2
2023-02-27T00:14:31.757Z,11.1
2023-02-27T00:19:54.656Z,11.3
2023-02-27T00:25:50.532Z,11.8
2023-02-27T00:31:43.707Z,12.6
2023-02-27T00:37:35.826Z,11.1
2023-02-27T00:43:28.466Z,10.3
2023-02-27T00:49:05.292Z,11.4
2023-02-27T00:54:42.162Z,11.1
2023-02-27T01:00:19.668Z,10.1
2023-02-27T01:06:14.261Z,10
2023-02-27T01:12:06.457Z,9.9
2023-02-27T01:17:44.302Z,9.8
2023-02-27T01:23:21.482Z,10
2023-02-27T01:29:13.940Z,10.2
2023-02-27T01:35:07.998Z,10.6
2023-02-27T01:41:00.679Z,10.5
2023-02-27T01:46:53.957Z,10.3
2023-02-27T01:52:46.397Z,10.4
2023-02-27T01:58:39.352Z,9.8
2023-02-27T02:04:32.790Z,9.8
2023-02-27T02:10:25.724Z,10.2
2023-02-27T02:16:17.910Z,10.3
2023-02-27T02:22:11.522Z,7.6
2023-02-27T02:28:04.486Z,7.5
2023-02-27T02:33:58.742Z,7.8
2023-02-27T02:39:51.019Z,8.2
2023-02-27T02:45:44.882Z,5.9
2023-02-27T02:51:21.706Z,5.1
2023-02-27T02:57:18.025Z,4.9
2023-02-27T03:03:11.206Z,4.7
2023-02-27T03:08:47.944Z,4.7
2023-02-27T03:14:44.140Z,4.8
2023-02-27T03:20:36.380Z,4.8
2023-02-27T03:26:31.256Z,4.8
2023-02-27T03:32:25.240Z,4.8
2023-02-27T03:38:17.926Z,4.8
2023-02-27T03:43:55.017Z,4.7
2023-02-27T03:49:47.525Z,4.6
2023-02-27T03:55:25.025Z,4.6
2023-02-27T04:01:17.577Z,4.6
2023-02-27T04:07:09.962Z,4.5
2023-02-27T04:13:02.753Z,4.5
2023-02-27T04:18:56.922Z,4.6
2023-02-27T04:24:50.236Z,4.5
2023-02-27T04:30:42.214Z,4.6
2023-02-27T04:36:35.386Z,4.6
2023-02-27T04:42:27.770Z,4.8
2023-02-27T04:48:08.283Z,4.8
2023-02-27T04:54:03.777Z,4.9
2023-02-27T04:59:56.142Z,4.9
2023-02-27T05:05:49.609Z,4.8
2023-02-27T05:11:41.731Z,4.7
2023-02-27T05:17:35.648Z,4.7
2023-02-27T05:23:14.484Z,4.7
2023-02-27T05:28:51.809Z,4.7
2023-02-27T05:34:45.186Z,4.6
2023-02-27T05:40:37.671Z,4.4
2023-02-27T05:46:31.060Z,4.3
2023-02-27T05:52:22.435Z,4.2
2023-02-27T05:58:14.702Z,4.3
2023-02-27T06:04:07.274Z,4.2
2023-02-27T06:10:00.671Z,4.1
2023-02-27T06:15:38.413Z,3.9
2023-02-27T06:21:31.767Z,3.9
2023-02-27T06:27:24.874Z,4.1
2023-02-27T06:33:20.446Z,4.3
2023-02-27T06:39:12.520Z,4.3
2023-02-27T06:45:05.164Z,4.3
2023-02-27T06:50:59.323Z,4.4
2023-02-27T06:56:51.320Z,4.7
2023-02-27T07:02:43.705Z,4.9
2023-02-27T07:09:56.685Z,5.3
2023-02-27T07:15:52.099Z,5.3
2023-02-27T07:21:44.324Z,5.9
2023-02-27T07:27:37.811Z,6.4
2023-02-27T07:33:30.923Z,6.8
2023-02-27T07:39:23.243Z,6.5
2023-02-27T07:45:27.805Z,6.7
2023-02-27T07:51:05.772Z,6.8
2023-02-27T07:56:59.108Z,6.9
2023-02-27T08:02:52.873Z,7
2023-02-27T08:08:46.411Z,7.3
2023-02-27T08:15:07.729Z,6.9
2023-02-27T08:21:02.015Z,7.2
2023-02-27T08:26:39.754Z,6.8
2023-02-27T08:32:35.038Z,6.8
2023-02-27T08:38:42.795Z,7.5
2023-02-27T08:44:35.733Z,8.1
2023-02-27T08:50:14.295Z,8
2023-02-27T08:56:07.973Z,8.8
2023-02-27T09:02:02.592Z,8.8
2023-02-27T09:07:56.316Z,9.8
2023-02-27T09:13:34.727Z,8.7
2023-02-27T09:19:28.504Z,8.8
2023-02-27T09:25:27.707Z,8.7
2023-02-27T09:31:34.053Z,9.3
2023-02-27T09:37:27.380Z,9.6
2023-02-27T09:43:20.017Z,10.4
2023-02-27T09:49:27.431Z,10.4
2023-02-27T09:55:21.169Z,10.3
2023-02-27T10:01:14.750Z,11.3
2023-02-27T10:07:08.256Z,10.8
2023-02-27T10:13:00.346Z,11.2
2023-02-27T10:19:07.013Z,11.1
2023-02-27T10:24:44.556Z,12.3
2023-02-27T10:31:00.409Z,11.4
2023-02-27T10:36:49.982Z,11.7
2023-02-27T10:42:43.277Z,12.2
2023-02-27T10:48:37.468Z,13.8
2023-02-27T10:54:31.307Z,13.9
2023-02-27T10:59:53.547Z,13.1
2023-02-27T11:05:31.951Z,14.4
2023-02-27T11:11:25.285Z,14.6
2023-02-27T11:17:19.123Z,14.8
2023-02-27T11:22:56.109Z,14.6
2023-02-27T11:28:48.433Z,15.4
2023-02-27T11:34:41.482Z,14.1
2023-02-27T11:40:03.565Z,13.4
2023-02-27T11:47:23.453Z,14.8
2023-02-27T11:53:17.574Z,14.8
2023-02-27T11:59:10.360Z,14.6
2023-02-27T12:05:03.257Z,13.6
2023-02-27T12:10:40.628Z,13.8
2023-02-27T12:16:34.581Z,15.7
2023-02-27T12:22:12.132Z,15.4
2023-02-27T12:28:05.431Z,16.2
2023-02-27T12:33:59.440Z,15.9
2023-02-27T12:39:53.146Z,15.1
2023-02-27T12:45:30.432Z,14.4
2023-02-27T12:51:23.923Z,13.1
2023-02-27T12:57:19.145Z,12.1
2023-02-27T13:02:56.500Z,11.7
2023-02-27T13:08:49.778Z,10.8
2023-02-27T13:14:42.923Z,11.1
2023-02-27T13:20:20.190Z,10
2023-02-27T13:26:14.505Z,9.5
2023-02-27T13:32:09.128Z,9.4
2023-02-27T13:38:20.189Z,8.9
2023-02-27T13:44:24.722Z,8.5
2023-02-27T13:50:26.827Z,8.1
2023-02-27T13:56:17.097Z,7.7
2023-02-27T14:01:55.934Z,7.5
2023-02-27T14:07:47.341Z,7.3
2023-02-27T14:13:34.839Z,7.1
2023-02-27T14:19:24.608Z,7
2023-02-27T14:25:34.736Z,6.8
2023-02-27T14:31:28.671Z,6.4
2023-02-27T14:37:37.891Z,6.4
2023-02-27T14:43:22.897Z,6.6
2023-02-27T14:49:18.440Z,6.5
2023-02-27T14:55:11.454Z,6.1
2023-02-27T15:01:13.213Z,5.5
2023-02-27T15:07:09.269Z,5.3
2023-02-27T15:13:10.409Z,5.4
2023-02-27T15:19:12.506Z,5.2
2023-02-27T15:25:06.560Z,5.3
2023-02-27T15:31:00.558Z,5.2
2023-02-27T15:36:53.592Z,5.4
2023-02-27T15:42:33.565Z,5.5
2023-02-27T15:48:26.263Z,5.6
2023-02-27T15:54:19.148Z,5
2023-02-27T16:00:07.344Z,5.2
2023-02-27T16:05:48.147Z,5.2
2023-02-27T16:11:41.594Z,5.4
2023-02-27T16:17:35.645Z,5.4
2023-02-27T16:23:28.704Z,5.3
2023-02-27T16:29:22.079Z,5.2
2023-02-27T16:35:15.584Z,5
2023-02-27T16:41:11.910Z,5.1
2023-02-27T16:46:50.222Z,4.9
2023-02-27T16:52:58.558Z,4.7
2023-02-27T16:58:58.645Z,4.8
2023-02-27T17:04:58.471Z,4.9
2023-02-27T17:10:34.927Z,4.9
2023-02-27T17:16:11.935Z,5.1
2023-02-27T17:22:06.961Z,5.2
2023-02-27T17:28:00.367Z,5.2
2023-02-27T17:33:54.606Z,5.3
2023-02-27T17:39:47.292Z,5.4
2023-02-27T17:45:24.729Z,5.4
2023-02-27T17:51:18.679Z,5.4
2023-02-27T17:57:11.044Z,5.1
2023-02-27T18:03:04.524Z,4.9
2023-02-27T18:08:56.271Z,4.9
2023-02-27T18:14:50.217Z,4.7
2023-02-27T18:20:44.055Z,4.6
2023-02-27T18:26:46.557Z,4.4
2023-02-27T18:32:39.018Z,4.4
2023-02-27T18:38:32.263Z,4.4
2023-02-27T18:44:25.735Z,4.5
2023-02-27T18:50:20.846Z,4.6
2023-02-27T18:56:12.732Z,4.6
2023-02-27T19:02:05.338Z,4.7
2023-02-27T19:08:02.254Z,4.7
2023-02-27T19:13:53.934Z,4.5
2023-02-27T19:19:47.347Z,4.6
2023-02-27T19:25:39.633Z,4.5
2023-02-27T19:31:17.787Z,4.4
2023-02-27T19:37:11.986Z,4.6
2023-02-27T19:42:49.179Z,4.4
2023-02-27T19:48:42.872Z,4.4
2023-02-27T19:54:35.544Z,4.3
2023-02-27T20:00:29.297Z,3.9
2023-02-27T20:06:22.653Z,3.9
2023-02-27T20:12:15.055Z,3.8
2023-02-27T20:18:08.340Z,3.7
2023-02-27T20:24:01.222Z,3.6
2023-02-27T20:29:54.533Z,3.8
2023-02-27T20:35:48.851Z,3.7
2023-02-27T20:41:41.200Z,3.8
2023-02-27T20:47:33.476Z,3.9
2023-02-27T20:53:26.930Z,3.9
2023-02-27T20:59:19.458Z,4.1
2023-02-27T21:05:21.477Z,4.1
2023-02-27T21:11:16.896Z,4.4
2023-02-27T21:17:09.045Z,4.5
2023-02-27T21:23:01.824Z,4.8
2023-02-27T21:28:54.672Z,4.8
2023-02-27T21:34:49.463Z,5
2023-02-27T21:40:42.661Z,5.3
2023-02-27T21:46:34.924Z,5.6
2023-02-27T21:52:45.351Z,5.6
2023-02-27T21:58:37.701Z,5.6
2023-02-27T22:04:30.305Z,5.5
2023-02-27T22:10:23.555Z,5.4
2023-02-27T22:16:17.032Z,5.2
2023-02-27T22:22:09.188Z,4.6
2023-02-27T22:28:01.484Z,4.5
2023-02-27T22:33:56.981Z,4.5
2023-02-27T22:39:49.523Z,4.4
2023-02-27T22:45:42.409Z,4.3
2023-02-27T22:51:34.841Z,4.4
2023-02-27T22:57:14.638Z,4.4
2023-02-27T23:03:07.077Z,4.4
2023-02-27T23:09:00.393Z,4.6
2023-02-27T23:14:53.841Z,4.8
2023-02-27T23:21:00.682Z,4.9
2023-02-27T23:26:52.962Z,5
2023-02-27T23:32:46.115Z,5
2023-02-27T23:38:47.536Z,5.1
2023-02-27T23:44:39.484Z,5.1
2023-02-27T23:50:31.620Z,4.9
2023-02-27T23:56:24.689Z,4.8
